Meridian, MS (39301)

10:50 PM CDT on July 23, 2014 (GMT -0500)
Key (KMEI) Elev 308 ft | 32.33 °N, 88.75 °W | Change Station

Current weather conditions updated 52 minutes ago

Partly Cloudy
Partly Cloudy
75 °F
Feels Like 75 °F
N
0
Wind Variable Wind from North

Tomorrow is forecast to be nearly the same temperature as today. Showers and thunderstorms late.

Today
High -- | Low -- °F
--% Chance of Precip.
Yesterday
High -- | Low -- °F
Precip. -- in
6:03 AM 7:58 PM
Waning Crescent, 7% visible
Pressure 30.00 in
Visibility 10.0 miles
Clouds Scattered Clouds 4200 ft
Dew Point 71 °F
Humidity 87%
Rainfall 0.02 in
Snow Depth Not available.
UV 0 out of 12
Pollen 3.30 out of 12
Air Quality Not available.
Flu Activity Not available.
METAR KMEI 240258Z AUTO 00000KT 10SM SCT042 24/22 A3001 RMK AO2 SLP158 60001 T02390217 50013

More Conditions Fewer Conditions

Pressure 30.00 in
Visibility 10.0 miles
Clouds Scattered Clouds 4200 ft
Dew Point 71 °F
Humidity 87%
Rainfall 0.02 in
Snow Depth Not available.
UV 0 out of 12
Pollen 3.30 out of 12
Air Quality Not available.
Flu Activity Not available.
METAR KMEI 240258Z AUTO 00000KT 10SM SCT042 24/22 A3001 RMK AO2 SLP158 60001 T02390217 50013

More Conditions Fewer Conditions

10-Day Weather Forecast

Almanac

Astronomy

Jul. 23, 2014 Rise Set
Actual Time 6:03 AM CDT 7:58 PM CDT
Civil Twilight 5:36 AM CDT 8:26 PM CDT
Nautical Twilight 5:03 AM CDT 8:59 PM CDT
Astronomical Twilight 4:27 AM CDT 9:34 PM CDT
Moon 3:21 AM CDT (7/23) 5:28 PM CDT (7/23)
Length of Visible Light 14h 49m
Length of Day
13h 55m
Tomorrow will be 1m 14s shorter.
Waning Crescent, 7% of the Moon is Illuminated
Today
Waning Crescent
Jul 26
New
Aug 3
First Quarter
Aug 10
Full
Aug 17
Last Quarter

Today's Extremes

State Highs State Lows

Community

WunderPhotos

Upload Photos

1,736,891 photos uploaded!

Nearby

Snow Depth

Station Depth Elevation
No new snow has been reported.

Earthquake Activity

City Distance Mag. Time & Date
No recent earthquake activity has been reported nearby.
Minimum magnitude displayed is 2.5.

Coastal Water Temperatures

Place Temperature
No Stations Reporting

Nearby Weather Stations

Station Location Temp. Heat Index Dew Point Humidity Wind Precip. Elev Updated Type
Downtown Pinesprings, 9.5 miles N of Mer, Meridian, MS 73.7 °F 71 °F - - North  at  0.0 mph 0.00 in / hr 412 ft 10:50 PM CDT Rapid Fire

Show More Stations Show Fewer Stations